Time;durP1;ratioP1;P1;durP2;ratioP2;P2;SDS_P1;SDS_P2;PMS_P1;PMS_P2;Temp;Humidity;BMP_temperature;BMP_pressure;BME280_temperature;BME280_humidity;BME280_pressure;Samples;Min_cycle;Max_cycle;Signal;HPM_P1;HPM_P2
2023/12/29 00:00:11;;;;;;;6.05;3.20;;;9.90;99.90;;;10.01;100.00;100574.59;4877866;28;24485;-67
2023/12/29 00:02:33;;;;;;;3.35;3.05;;;9.90;99.90;;;9.96;100.00;100566.28;4863853;28;24546;-67
2023/12/29 00:04:55;;;;;;;4.50;4.00;;;9.90;99.90;;;9.97;100.00;100573.13;4874048;28;24466;-66
2023/12/29 00:07:17;;;;;;;4.23;3.60;;;9.90;99.90;;;9.96;100.00;100574.94;4853427;28;24454;-67
2023/12/29 00:09:42;;;;;;;3.15;2.95;;;9.90;99.90;;;9.99;100.00;100566.03;4840891;28;24432;-67
2023/12/29 00:12:04;;;;;;;2.90;2.70;;;9.90;99.90;;;10.03;100.00;100567.47;4864720;28;24911;-67
2023/12/29 00:14:26;;;;;;;3.20;2.90;;;9.90;99.90;;;10.05;100.00;100570.84;4877597;28;25042;-66
2023/12/29 00:16:48;;;;;;;2.60;2.50;;;9.90;99.90;;;10.08;99.92;100576.66;4857819;28;24428;-66
2023/12/29 00:19:12;;;;;;;2.90;2.70;;;9.90;99.90;;;10.14;99.46;100560.63;4852942;28;24512;-65
2023/12/29 00:21:35;;;;;;;2.50;2.30;;;10.00;99.90;;;10.19;100.00;100551.63;4844481;28;24554;-65
2023/12/29 00:23:57;;;;;;;2.10;2.00;;;10.00;99.90;;;10.18;99.21;100550.78;4859024;28;26012;-65
2023/12/29 00:26:19;;;;;;;2.28;2.17;;;10.00;99.90;;;10.20;98.82;100540.28;4860801;28;24905;-68
2023/12/29 00:28:41;;;;;;;2.00;1.90;;;10.10;99.90;;;10.17;99.18;100538.72;4868102;28;24881;-65
2023/12/29 00:31:05;;;;;;;1.85;1.80;;;10.10;99.90;;;10.22;97.79;100544.44;4876527;28;24446;-65
2023/12/29 00:33:27;;;;;;;2.15;2.05;;;10.10;99.90;;;10.22;97.51;100547.03;4875708;28;24469;-67
2023/12/29 00:35:49;;;;;;;2.10;2.00;;;10.10;99.90;;;10.25;97.61;100554.63;4873807;28;24476;-67
2023/12/29 00:38:11;;;;;;;2.60;2.05;;;10.20;99.90;;;10.27;96.99;100547.53;4873262;28;24475;-64
2023/12/29 00:40:33;;;;;;;1.70;1.60;;;10.10;99.90;;;10.27;96.96;100542.31;4857958;28;24933;-65
2023/12/29 00:42:55;;;;;;;2.15;2.03;;;10.10;99.90;;;10.29;96.40;100544.81;4857797;28;25180;-65
2023/12/29 00:45:17;;;;;;;2.70;2.20;;;10.20;99.90;;;10.23;97.56;100543.47;4861996;28;24471;-66
2023/12/29 00:47:39;;;;;;;2.33;2.17;;;10.10;99.90;;;10.19;97.79;100536.81;4858003;28;24457;-66
2023/12/29 00:50:01;;;;;;;2.60;2.40;;;10.10;99.90;;;10.15;97.56;100545.81;4870389;28;25169;-66
2023/12/29 00:52:23;;;;;;;2.40;2.30;;;10.10;99.90;;;10.09;98.86;100546.22;4861146;28;24494;-64
2023/12/29 00:54:45;;;;;;;2.58;2.38;;;10.00;99.90;;;10.04;98.15;100546.53;4856246;28;24505;-66
2023/12/29 00:57:07;;;;;;;3.03;2.83;;;10.00;99.90;;;10.09;98.91;100541.00;4876712;28;24523;-65
2023/12/29 00:59:29;;;;;;;2.15;2.05;;;10.00;99.90;;;10.11;97.42;100539.97;4868951;28;24723;-66
2023/12/29 01:01:51;;;;;;;2.10;1.90;;;10.00;99.90;;;10.07;97.05;100537.69;4861803;28;24455;-66
2023/12/29 01:04:13;;;;;;;2.00;1.90;;;10.00;99.90;;;10.05;96.53;100521.31;4852889;28;25302;-66
2023/12/29 01:06:36;;;;;;;1.83;1.73;;;10.00;99.90;;;10.10;96.50;100527.88;4873076;28;24526;-66
2023/12/29 01:08:58;;;;;;;1.70;1.60;;;10.00;99.90;;;10.10;96.05;100534.84;4833797;28;24452;-65
2023/12/29 01:11:20;;;;;;;1.90;1.80;;;10.00;99.90;;;10.17;95.08;100527.44;4845899;28;24415;-65
2023/12/29 01:13:42;;;;;;;1.88;1.77;;;10.10;99.90;;;10.23;94.36;100532.22;4823536;28;24461;-66
2023/12/29 01:16:04;;;;;;;1.77;1.67;;;10.10;99.90;;;10.30;94.50;100523.84;4832225;28;25099;-65
2023/12/29 01:18:26;;;;;;;1.80;1.70;;;10.20;99.90;;;10.33;93.89;100530.63;4856758;28;24485;-67
2023/12/29 01:20:48;;;;;;;1.88;1.77;;;10.20;99.90;;;10.39;92.89;100528.38;4860056;28;24432;-66
2023/12/29 01:23:10;;;;;;;1.80;1.70;;;10.30;99.90;;;10.40;92.41;100534.44;4841784;28;24479;-66
2023/12/29 01:25:32;;;;;;;1.90;1.80;;;10.30;99.90;;;10.40;92.11;100540.50;4824228;28;24447;-66
2023/12/29 01:27:54;;;;;;;1.70;1.60;;;10.30;99.90;;;10.43;91.82;100549.88;4838926;28;24456;-66
2023/12/29 01:30:16;;;;;;;2.30;1.90;;;10.30;99.90;;;10.42;91.94;100549.03;4850894;28;25008;-66
2023/12/29 01:32:38;;;;;;;1.80;1.70;;;10.30;99.90;;;10.42;92.36;100538.59;4864385;28;24448;-66
2023/12/29 01:35:00;;;;;;;2.10;1.90;;;10.30;99.90;;;10.37;92.32;100545.91;4845237;28;24501;-66
2023/12/29 01:37:22;;;;;;;2.00;1.90;;;10.30;99.90;;;10.38;93.05;100542.38;4868473;28;24539;-66
2023/12/29 01:39:44;;;;;;;2.58;2.40;;;10.20;99.90;;;10.30;95.76;100538.66;4867471;28;24999;-66
2023/12/29 01:42:06;;;;;;;2.60;2.40;;;10.20;99.90;;;10.22;96.63;100530.56;4855578;28;24497;-65
2023/12/29 01:44:28;;;;;;;3.42;3.15;;;10.10;99.90;;;10.18;96.70;100524.72;4873078;28;24514;-66
2023/12/29 01:46:54;;;;;;;3.30;3.00;;;10.10;99.90;;;10.06;98.07;100515.16;4865983;28;25015;-65
2023/12/29 01:49:19;;;;;;;3.80;3.37;;;10.00;99.90;;;9.94;99.86;100505.59;4836050;28;24471;-66
2023/12/29 01:51:43;;;;;;;3.83;3.40;;;9.90;99.90;;;9.80;100.00;100506.56;4850494;28;24925;-65
2023/12/29 01:54:05;;;;;;;3.30;3.10;;;9.80;99.90;;;9.78;100.00;100505.00;4848349;28;24435;-66
2023/12/29 01:56:27;;;;;;;4.38;3.30;;;9.70;99.90;;;9.77;100.00;100503.34;4849916;28;24555;-65
2023/12/29 01:58:51;;;;;;;4.40;3.30;;;9.70;99.90;;;9.77;100.00;100500.75;4834610;28;24443;-66
2023/12/29 02:01:15;;;;;;;3.63;3.22;;;9.70;99.90;;;9.67;99.39;100503.16;4838954;28;24459;-65
2023/12/29 02:03:37;;;;;;;3.20;2.90;;;9.60;99.90;;;9.65;99.31;100497.22;4830693;28;24543;-66
2023/12/29 02:06:00;;;;;;;3.00;2.70;;;9.60;99.90;;;9.74;98.57;100495.75;4839724;28;24505;-65
2023/12/29 02:08:22;;;;;;;3.85;3.10;;;9.60;99.90;;;9.67;99.41;100503.16;4854706;28;24842;-65
2023/12/29 02:10:44;;;;;;;3.40;3.10;;;9.60;99.90;;;9.63;100.00;100496.50;4855953;28;24879;-65
2023/12/29 02:13:06;;;;;;;4.20;3.67;;;9.60;99.90;;;9.60;100.00;100493.28;4862667;28;25015;-67
2023/12/29 02:15:28;;;;;;;5.60;3.70;;;9.50;99.90;;;9.64;100.00;100506.00;4842641;28;24599;-67
2023/12/29 02:18:02;;;;;;;3.53;3.22;;;9.50;99.90;;;9.69;100.00;100500.47;4872511;28;24525;-67
2023/12/29 02:20:25;;;;;;;3.30;3.00;;;9.60;99.90;;;9.63;100.00;100504.31;4855518;28;24877;-67
2023/12/29 02:22:47;;;;;;;3.90;3.20;;;9.60;99.90;;;9.58;100.00;100490.81;4846822;28;24435;-67
2023/12/29 02:25:09;;;;;;;3.70;3.40;;;9.50;99.90;;;9.58;100.00;100492.56;4840691;28;24451;-67
2023/12/29 02:27:46;;;;;;;2.90;2.70;;;9.50;99.90;;;9.63;99.74;100493.06;4838486;28;24425;-67
2023/12/29 02:30:38;;;;;;;2.50;2.30;;;9.50;99.90;;;9.66;99.08;100469.41;4844889;28;24448;-66
2023/12/29 02:33:04;;;;;;;2.10;2.00;;;9.50;99.90;;;9.69;97.78;100484.84;4846535;28;24474;-66
2023/12/29 02:35:36;;;;;;;2.90;2.10;;;9.50;99.90;;;9.70;96.11;100494.31;4852014;28;24500;-66
2023/12/29 02:37:58;;;;;;;1.90;1.80;;;9.60;99.90;;;9.75;94.73;100489.59;4874416;28;24427;-66
2023/12/29 02:40:21;;;;;;;1.95;1.77;;;9.60;99.90;;;9.79;93.67;100480.63;4872632;28;24451;-65
2023/12/29 02:42:47;;;;;;;1.70;1.60;;;9.70;99.90;;;9.86;92.38;100487.88;4840122;28;24434;-66
2023/12/29 02:45:10;;;;;;;1.80;1.50;;;9.70;99.90;;;9.94;91.59;100484.75;4836787;28;24436;-66
2023/12/29 02:47:32;;;;;;;1.60;1.50;;;9.80;99.90;;;10.04;90.55;100488.34;4867903;28;25038;-64
2023/12/29 02:49:54;;;;;;;1.70;1.70;;;9.90;99.90;;;10.10;89.18;100486.19;4865139;28;24447;-66
2023/12/29 02:52:17;;;;;;;1.90;1.60;;;10.00;99.90;;;10.18;89.44;100488.22;4842984;28;24601;-67
2023/12/29 02:54:38;;;;;;;1.70;1.60;;;10.00;99.90;;;10.20;88.50;100485.53;4865112;28;24438;-66
2023/12/29 02:57:00;;;;;;;1.80;1.70;;;10.10;99.90;;;10.25;88.28;100493.81;4866637;28;24482;-66
2023/12/29 02:59:23;;;;;;;1.60;1.50;;;10.10;99.90;;;10.26;88.72;100475.47;4850139;28;24434;-66
2023/12/29 03:01:45;;;;;;;1.70;1.60;;;10.10;99.90;;;10.31;87.57;100478.56;4867160;28;24482;-67
2023/12/29 03:04:07;;;;;;;1.55;1.45;;;10.10;99.90;;;10.32;88.30;100474.19;4844872;28;24479;-66
2023/12/29 03:06:29;;;;;;;1.90;1.80;;;10.20;99.90;;;10.34;87.25;100483.56;4837761;28;24511;-66
2023/12/29 03:08:51;;;;;;;1.83;1.73;;;10.20;99.90;;;10.38;87.45;100485.00;4837438;28;24530;-66
2023/12/29 03:11:13;;;;;;;1.70;1.60;;;10.20;99.90;;;10.39;86.81;100481.44;4825858;28;25051;-66
2023/12/29 03:13:35;;;;;;;1.60;1.50;;;10.20;99.90;;;10.42;86.25;100486.44;4840540;28;24519;-66
2023/12/29 03:15:57;;;;;;;1.70;1.70;;;10.20;99.90;;;10.43;85.92;100482.91;4873344;28;24539;-66
2023/12/29 03:18:19;;;;;;;1.50;1.45;;;10.30;99.90;;;10.43;85.48;100484.66;4855373;28;24516;-66
2023/12/29 03:20:42;;;;;;;1.50;1.40;;;10.30;99.90;;;10.41;85.24;100486.56;4839617;28;24427;-65
2023/12/29 03:23:04;;;;;;;2.60;1.40;;;10.20;99.90;;;10.43;84.71;100498.56;4853965;28;24463;-66
2023/12/29 03:25:25;;;;;;;1.20;1.20;;;10.30;99.90;;;10.48;84.93;100499.03;4856308;28;24431;-66
2023/12/29 03:27:47;;;;;;;1.60;1.30;;;10.30;99.90;;;10.50;84.74;100494.53;4865593;28;24501;-66
2023/12/29 03:30:10;;;;;;;1.40;1.30;;;10.30;99.90;;;10.50;84.50;100497.13;4864034;28;25066;-66
2023/12/29 03:32:32;;;;;;;1.58;1.48;;;10.30;99.90;;;10.53;83.86;100485.66;4856567;28;24439;-67
2023/12/29 03:34:54;;;;;;;1.40;1.40;;;10.30;99.90;;;10.56;84.17;100490.66;4850549;28;24548;-67
2023/12/29 03:37:17;;;;;;;1.80;1.70;;;10.40;99.90;;;10.63;83.62;100495.28;4868449;28;24427;-67
2023/12/29 03:39:39;;;;;;;1.55;1.55;;;10.40;99.90;;;10.67;83.12;100498.50;4831373;28;24800;-66
2023/12/29 03:42:01;;;;;;;1.70;1.60;;;10.50;99.90;;;10.73;83.44;100495.44;4863148;28;24443;-67
2023/12/29 03:44:23;;;;;;;1.45;1.45;;;10.50;99.90;;;10.76;83.40;100489.97;4869317;28;24550;-66
2023/12/29 03:46:46;;;;;;;1.90;1.65;;;10.50;99.90;;;10.80;83.04;100484.44;4864903;28;24443;-66
2023/12/29 03:49:08;;;;;;;1.60;1.50;;;10.60;99.90;;;10.82;82.95;100479.91;4856191;28;25059;-66
2023/12/29 03:51:30;;;;;;;1.50;1.40;;;10.60;99.90;;;10.85;81.86;100487.53;4854534;28;24647;-66
2023/12/29 03:53:52;;;;;;;1.60;1.60;;;10.70;99.90;;;10.88;81.56;100481.25;4871096;28;24423;-66
2023/12/29 03:56:18;;;;;;;1.63;1.52;;;10.70;99.90;;;10.91;82.09;100487.06;4868677;28;25026;-64
2023/12/29 03:58:39;;;;;;;1.45;1.40;;;10.70;99.90;;;10.91;82.79;100484.44;4874749;28;25042;-66
2023/12/29 04:01:02;;;;;;;1.80;1.60;;;10.70;99.90;;;10.94;82.31;100481.59;4865061;28;24542;-67
2023/12/29 04:03:24;;;;;;;1.70;1.60;;;10.70;99.90;;;10.95;82.06;100479.81;4851346;28;24747;-65
2023/12/29 04:05:46;;;;;;;1.60;1.50;;;10.70;99.90;;;10.96;82.60;100485.88;4858237;28;24471;-64
2023/12/29 04:08:08;;;;;;;2.72;1.80;;;10.80;99.90;;;10.97;82.98;100480.53;4861357;28;24552;-64
2023/12/29 04:10:29;;;;;;;1.38;1.38;;;10.80;99.90;;;10.96;82.61;100480.66;4835684;28;24543;-67
2023/12/29 04:12:51;;;;;;;1.85;1.50;;;10.80;99.90;;;10.98;82.36;100490.03;4855771;28;24527;-66
2023/12/29 04:15:13;;;;;;;1.50;1.50;;;10.80;99.90;;;10.98;83.05;100471.78;4838050;28;24482;-65
2023/12/29 04:17:35;;;;;;;2.90;1.67;;;10.80;99.90;;;10.99;82.17;100478.63;4836569;28;24878;-65
2023/12/29 04:19:57;;;;;;;1.60;1.50;;;10.80;99.90;;;10.97;81.69;100474.50;4846914;28;24479;-65
2023/12/29 04:22:19;;;;;;;1.45;1.35;;;10.80;99.90;;;10.92;83.21;100474.84;4859884;28;24482;-65
2023/12/29 04:24:41;;;;;;;1.70;1.60;;;10.80;99.90;;;10.90;82.31;100480.16;4853610;28;24841;-63
2023/12/29 04:27:04;;;;;;;1.50;1.40;;;10.80;99.90;;;10.88;83.27;100481.25;4855623;28;24428;-65
2023/12/29 04:29:26;;;;;;;1.80;1.70;;;10.70;99.90;;;10.80;83.98;100476.59;4863322;28;24555;-65
2023/12/29 04:31:48;;;;;;;1.58;1.58;;;10.70;99.90;;;10.76;84.32;100464.72;4863788;28;24516;-65
2023/12/29 04:34:10;;;;;;;1.70;1.60;;;10.60;99.90;;;10.69;84.27;100463.50;4863188;28;24432;-65
2023/12/29 04:36:32;;;;;;;1.70;1.60;;;10.60;99.90;;;10.67;83.50;100459.34;4854518;28;21200;-65
2023/12/29 04:38:54;;;;;;;1.60;1.50;;;10.60;99.90;;;10.63;83.32;100463.97;4853870;28;24439;-66
2023/12/29 04:41:16;;;;;;;1.70;1.60;;;10.50;99.90;;;10.63;82.63;100458.75;4872824;28;24450;-65
2023/12/29 04:43:37;;;;;;;1.80;1.70;;;10.50;99.90;;;10.57;83.08;100459.22;4847490;28;24525;-65
2023/12/29 04:46:00;;;;;;;1.90;1.80;;;10.50;99.90;;;10.58;83.34;100463.50;4858906;28;24475;-66
2023/12/29 04:48:22;;;;;;;1.88;1.77;;;10.50;99.90;;;10.55;83.82;100461.13;4872069;28;24506;-64
2023/12/29 04:50:44;;;;;;;1.73;1.63;;;10.40;99.90;;;10.49;83.62;100452.91;4858035;28;24913;-65
2023/12/29 04:53:06;;;;;;;1.80;1.70;;;10.40;99.90;;;10.46;84.42;100445.31;4856984;28;24496;-66
2023/12/29 04:55:28;;;;;;;1.70;1.60;;;10.30;99.90;;;10.40;83.97;100441.38;4854629;28;24527;-65
2023/12/29 04:57:50;;;;;;;1.73;1.63;;;10.30;99.90;;;10.40;83.79;100444.00;4864015;28;24539;-65
2023/12/29 05:00:12;;;;;;;1.90;1.70;;;10.30;99.90;;;10.42;83.33;100447.31;4839442;28;24505;-66
2023/12/29 05:02:34;;;;;;;2.65;1.70;;;10.30;99.90;;;10.42;83.57;100449.91;4858838;28;24917;-65
2023/12/29 05:04:56;;;;;;;3.40;1.70;;;10.30;99.90;;;10.42;83.62;100449.91;4867887;28;24446;-65
2023/12/29 05:07:18;;;;;;;1.73;1.70;;;10.30;99.90;;;10.40;83.92;100451.81;4856724;28;24431;-65
2023/12/29 05:09:40;;;;;;;1.80;1.70;;;10.30;99.90;;;10.37;83.87;100441.59;4865477;28;24546;-65
2023/12/29 05:12:02;;;;;;;1.70;1.60;;;10.30;99.90;;;10.33;84.45;100439.34;4858503;28;24569;-65
2023/12/29 05:14:24;;;;;;;1.70;1.70;;;10.20;99.90;;;10.35;84.09;100442.69;4841674;28;24552;-64
2023/12/29 05:16:46;;;;;;;1.80;1.70;;;10.20;99.90;;;10.38;84.45;100453.69;4836284;28;24516;-64
2023/12/29 05:19:08;;;;;;;2.20;1.70;;;10.20;99.90;;;10.40;83.87;100454.41;4847757;28;24515;-64
2023/12/29 05:21:30;;;;;;;1.52;1.50;;;10.20;99.90;;;10.44;83.49;100453.25;4864046;28;24523;-65
2023/12/29 05:23:52;;;;;;;1.30;1.30;;;10.30;99.90;;;10.44;84.14;100455.84;4856801;28;24543;-64
2023/12/29 05:26:15;;;;;;;1.70;1.60;;;10.30;99.90;;;10.46;84.72;100460.94;4874090;28;24516;-65
2023/12/29 05:28:37;;;;;;;1.55;1.45;;;10.40;99.90;;;10.44;84.96;100452.41;4857535;28;24518;-65
2023/12/29 05:31:03;;;;;;;1.80;1.60;;;10.30;99.90;;;10.43;84.70;100466.41;4864853;28;24451;-65
2023/12/29 05:33:25;;;;;;;1.75;1.70;;;10.30;99.90;;;10.41;85.17;100461.31;4864965;28;24519;-65
2023/12/29 05:35:47;;;;;;;1.35;1.35;;;10.30;99.90;;;10.43;85.46;100458.59;4867279;28;24473;-65
2023/12/29 05:38:09;;;;;;;1.70;1.60;;;10.30;99.90;;;10.44;85.66;100458.47;4865821;28;25087;-65
2023/12/29 05:40:31;;;;;;;2.10;1.70;;;10.30;99.90;;;10.49;85.42;100461.56;4875075;28;24491;-65
2023/12/29 05:42:53;;;;;;;1.80;1.70;;;10.30;99.90;;;10.55;86.63;100453.28;4875547;28;24427;-65
2023/12/29 05:45:18;;;;;;;2.30;2.10;;;10.40;99.90;;;10.48;87.99;100448.63;4865528;28;24825;-65
2023/12/29 05:47:40;;;;;;;2.55;2.42;;;10.30;99.90;;;10.41;89.56;100453.50;4873408;28;24512;-65
2023/12/29 05:50:03;;;;;;;2.80;2.60;;;10.30;99.90;;;10.26;90.45;100443.34;4863560;28;24514;-65
2023/12/29 05:52:25;;;;;;;2.70;2.50;;;10.20;99.90;;;10.14;92.05;100451.13;4841835;28;25055;-65
2023/12/29 05:54:47;;;;;;;3.08;2.88;;;10.10;99.90;;;10.01;93.99;100459.91;4846425;28;24446;-65
2023/12/29 05:57:12;;;;;;;3.60;3.30;;;10.00;99.90;;;9.92;94.34;100456.16;4866241;28;20803;-66
2023/12/29 05:59:34;;;;;;;4.10;3.70;;;9.90;99.90;;;9.90;95.45;100462.47;4855926;28;24447;-65
2023/12/29 06:01:56;;;;;;;4.00;3.60;;;9.80;99.90;;;9.89;96.03;100460.78;4846238;28;24547;-65
2023/12/29 06:04:18;;;;;;;3.08;2.88;;;9.80;99.90;;;9.85;96.91;100464.56;4856281;28;24543;-65
2023/12/29 06:06:42;;;;;;;3.60;3.30;;;9.80;99.90;;;9.89;97.32;100456.41;4862479;28;25048;-65
2023/12/29 06:09:04;;;;;;;3.42;2.95;;;9.70;99.90;;;9.91;96.66;100458.91;4868053;28;25003;-65
2023/12/29 06:11:26;;;;;;;3.00;2.80;;;9.80;99.90;;;9.92;96.43;100450.97;4868422;28;24515;-61
2023/12/29 06:13:49;;;;;;;3.72;3.00;;;9.80;99.90;;;9.91;96.87;100458.91;4857020;28;24458;-65
2023/12/29 06:16:20;;;;;;;3.00;2.80;;;9.80;99.90;;;9.87;97.45;100454.84;4855641;28;24805;-64
2023/12/29 06:18:42;;;;;;;3.10;2.80;;;9.70;99.90;;;9.87;97.58;100462.66;4839960;28;24997;-63
2023/12/29 06:21:04;;;;;;;2.67;2.47;;;9.70;99.90;;;9.83;98.61;100461.22;4867411;28;24428;-65
2023/12/29 06:23:26;;;;;;;2.40;2.20;;;9.70;99.90;;;9.83;98.30;100466.44;4874261;28;24469;-65
2023/12/29 06:25:48;;;;;;;2.97;2.67;;;9.70;99.90;;;9.88;98.24;100466.97;4854112;28;25019;-65
2023/12/29 06:28:10;;;;;;;2.83;2.53;;;9.80;99.90;;;9.84;98.20;100466.31;4855940;28;24873;-65
2023/12/29 06:30:32;;;;;;;2.20;2.10;;;9.80;99.90;;;9.77;98.38;100465.13;4864908;28;24542;-65
2023/12/29 06:32:54;;;;;;;2.58;2.38;;;9.70;99.90;;;9.80;98.92;100461.44;4865043;28;25091;-66
2023/12/29 06:35:16;;;;;;;2.90;2.70;;;9.70;99.90;;;9.83;98.96;100469.03;4869038;28;24447;-65
2023/12/29 06:37:39;;;;;;;2.83;2.63;;;9.70;99.90;;;9.82;98.93;100469.97;4866598;28;24429;-65
2023/12/29 06:40:01;;;;;;;4.20;2.80;;;9.70;99.90;;;9.83;98.43;100466.44;4848629;28;24486;-66
2023/12/29 06:42:23;;;;;;;3.15;2.85;;;9.70;99.90;;;9.86;99.12;100466.22;4857351;28;24435;-65
2023/12/29 06:44:46;;;;;;;2.90;2.50;;;9.70;99.90;;;9.89;98.56;100460.78;4850177;28;24554;-65
2023/12/29 06:47:09;;;;;;;2.60;2.40;;;9.70;99.90;;;9.81;97.02;100447.47;4857600;28;24439;-65
2023/12/29 06:49:31;;;;;;;1.88;1.77;;;9.70;99.90;;;9.92;95.07;100445.75;4873549;28;24455;-65
2023/12/29 06:51:53;;;;;;;1.90;1.63;;;9.80;99.90;;;10.06;92.68;100442.16;4838131;28;24438;-66
2023/12/29 06:54:15;;;;;;;1.70;1.60;;;9.90;99.90;;;10.16;92.43;100426.72;4827876;28;25060;-65
2023/12/29 06:56:37;;;;;;;1.40;1.40;;;10.00;99.90;;;10.24;91.34;100440.03;4856260;28;24462;-66
2023/12/29 06:59:02;;;;;;;1.20;1.20;;;10.00;99.90;;;10.36;89.27;100434.72;4838345;28;24594;-66
2023/12/29 07:01:24;;;;;;;1.20;1.20;;;10.20;99.90;;;10.51;87.64;100428.38;4870065;28;24499;-65
2023/12/29 07:03:47;;;;;;;1.50;1.40;;;10.30;99.90;;;10.58;86.44;100432.19;4872493;28;25004;-62
2023/12/29 07:06:10;;;;;;;1.50;1.37;;;10.40;99.90;;;10.66;86.24;100423.78;4875052;28;24500;-65
2023/12/29 07:08:34;;;;;;;1.42;1.40;;;10.50;99.90;;;10.77;84.98;100429.03;4874414;28;24435;-65
2023/12/29 07:10:56;;;;;;;1.10;1.10;;;10.60;99.90;;;10.80;83.73;100434.00;4865635;28;24461;-64
2023/12/29 07:13:19;;;;;;;1.02;1.02;;;10.60;99.90;;;10.81;83.72;100431.28;4866429;28;24519;-65
2023/12/29 07:15:41;;;;;;;1.20;1.10;;;10.60;99.90;;;10.84;84.17;100431.03;4873411;28;25092;-65
2023/12/29 07:18:03;;;;;;;1.10;1.10;;;10.60;99.90;;;10.86;84.22;100429.16;4857829;28;25008;-66
2023/12/29 07:20:26;;;;;;;1.10;1.10;;;10.70;99.90;;;10.94;82.85;100434.59;4868694;28;24888;-64
2023/12/29 07:22:48;;;;;;;1.20;1.10;;;10.70;99.90;;;11.00;82.02;100435.94;4863839;28;24433;-65
2023/12/29 07:25:11;;;;;;;1.10;1.10;;;10.80;99.90;;;11.06;82.48;100437.22;4862723;28;25004;-65
2023/12/29 07:27:33;;;;;;;1.40;0.90;;;10.90;99.90;;;11.15;80.84;100449.59;4860977;28;24447;-65
2023/12/29 07:29:56;;;;;;;2.85;1.10;;;11.00;99.90;;;11.17;79.26;100439.84;4823701;28;24533;-65
2023/12/29 07:32:18;;;;;;;0.80;0.80;;;11.00;99.90;;;11.26;77.20;100457.44;4870157;28;24448;-64
2023/12/29 07:34:40;;;;;;;0.80;0.80;;;11.10;99.90;;;11.28;76.96;100456.38;4861570;28;25189;-65
2023/12/29 07:37:03;;;;;;;1.60;0.70;;;11.10;99.90;;;11.29;77.02;100454.56;4859914;28;24439;-65
2023/12/29 07:39:25;;;;;;;0.70;0.70;;;11.10;99.90;;;11.39;76.29;100460.75;4873343;28;24431;-65
2023/12/29 07:41:48;;;;;;;1.35;1.00;;;11.20;99.90;;;11.41;76.05;100477.13;4863889;28;24988;-65
2023/12/29 07:44:11;;;;;;;1.27;0.90;;;11.20;99.90;;;11.38;76.78;100464.31;4855446;28;24968;-66
2023/12/29 07:46:33;;;;;;;0.90;0.90;;;11.20;99.90;;;11.42;77.12;100469.16;4858553;28;24490;-65
2023/12/29 07:48:55;;;;;;;1.13;1.00;;;11.20;99.90;;;11.42;77.57;100466.56;4844406;28;24456;-65
2023/12/29 07:51:18;;;;;;;4.40;1.80;;;11.30;99.90;;;11.45;77.92;100457.66;4836562;28;24455;-65
2023/12/29 07:53:40;;;;;;;2.25;1.05;;;11.20;99.90;;;11.42;77.31;100465.72;4855171;28;24997;-65
2023/12/29 07:56:02;;;;;;;1.10;1.10;;;11.30;99.90;;;11.51;77.99;100472.84;4853337;28;24440;-65
2023/12/29 07:58:24;;;;;;;2.20;1.20;;;11.30;99.90;;;11.50;78.23;100468.56;4855711;28;24528;-66
2023/12/29 08:00:46;;;;;;;3.05;1.20;;;11.30;99.90;;;11.41;79.38;100472.75;4836509;28;24988;-66
2023/12/29 08:03:08;;;;;;;1.60;1.30;;;11.30;99.90;;;11.34;79.30;100455.88;4873677;28;24435;-66
2023/12/29 08:05:30;;;;;;;1.48;1.30;;;11.20;99.90;;;11.33;79.27;100467.28;4846243;28;24471;-66
2023/12/29 08:07:52;;;;;;;1.08;1.08;;;11.10;99.90;;;11.34;79.63;100460.28;4853300;28;25054;-66
2023/12/29 08:10:14;;;;;;;1.23;1.23;;;11.10;99.90;;;11.32;79.54;100456.94;4864057;28;24456;-65
2023/12/29 08:12:36;;;;;;;1.20;1.10;;;11.10;99.90;;;11.36;80.32;100471.44;4862593;28;24454;-66
2023/12/29 08:14:58;;;;;;;1.40;1.00;;;11.20;99.90;;;11.40;78.77;100471.06;4873087;28;24523;-66
2023/12/29 08:17:20;;;;;;;1.20;1.10;;;11.20;99.90;;;11.40;79.30;100468.47;4866780;28;24449;-66
2023/12/29 08:19:42;;;;;;;1.10;1.00;;;11.20;99.90;;;11.52;79.09;100461.47;4870834;28;24502;-67
2023/12/29 08:22:05;;;;;;;1.00;1.00;;;11.30;99.90;;;11.58;79.10;100464.41;4865606;28;24543;-68
2023/12/29 08:24:27;;;;;;;1.10;1.00;;;11.40;99.90;;;11.61;79.01;100468.56;4838963;28;24452;-67
2023/12/29 08:26:49;;;;;;;1.00;1.00;;;11.40;99.90;;;11.63;79.09;100477.09;4842452;28;24816;-66
2023/12/29 08:29:12;;;;;;;1.20;1.10;;;11.30;99.90;;;11.68;78.54;100475.84;4842007;28;25004;-67
2023/12/29 08:31:33;;;;;;;1.70;1.13;;;11.40;99.90;;;11.71;77.74;100480.00;4874785;28;24511;-65
2023/12/29 08:33:55;;;;;;;1.25;1.15;;;11.50;99.90;;;11.68;77.92;100483.69;4873499;28;24903;-65
2023/12/29 08:36:21;;;;;;;0.90;0.90;;;11.50;99.90;;;11.67;77.67;100476.78;4875436;28;24494;-66
2023/12/29 08:38:43;;;;;;;1.20;1.10;;;11.50;99.90;;;11.65;78.24;100475.19;4876973;28;24509;-66
2023/12/29 08:41:05;;;;;;;1.58;0.90;;;11.50;99.90;;;11.57;79.19;100477.59;4858022;28;25052;-64
2023/12/29 08:43:27;;;;;;;1.10;1.00;;;11.50;99.90;;;11.52;79.89;100480.56;4862912;28;24498;-67
2023/12/29 08:45:49;;;;;;;1.30;1.20;;;11.40;99.90;;;11.60;80.58;100483.44;4840092;28;24447;-65
2023/12/29 08:48:11;;;;;;;1.70;1.20;;;11.40;99.90;;;11.56;81.47;100483.78;4846817;28;24444;-66
2023/12/29 08:50:36;;;;;;;1.70;1.50;;;11.40;99.90;;;11.44;82.46;100487.34;4857851;28;24463;-65
2023/12/29 08:52:58;;;;;;;1.60;1.50;;;11.30;99.90;;;11.42;83.21;100487.47;4868859;28;25116;-66
2023/12/29 08:55:19;;;;;;;1.83;1.60;;;11.20;99.90;;;11.39;83.72;100484.25;4847333;28;24523;-66
2023/12/29 08:57:42;;;;;;;1.80;1.70;;;11.20;99.90;;;11.35;83.08;100477.63;4858914;28;25097;-66
2023/12/29 09:00:05;;;;;;;1.20;1.10;;;11.20;99.90;;;11.40;83.46;100472.84;4863912;28;24856;-65
2023/12/29 09:02:27;;;;;;;2.70;1.30;;;11.20;99.90;;;11.44;82.00;100482.09;4866270;28;24538;-66
2023/12/29 09:04:49;;;;;;;0.80;0.80;;;11.20;99.90;;;11.55;81.14;100476.88;4876634;28;25046;-66
2023/12/29 09:07:11;;;;;;;1.00;0.90;;;11.30;99.90;;;11.65;79.69;100472.59;4857119;28;24497;-64
2023/12/29 09:09:33;;;;;;;1.10;1.10;;;11.40;99.90;;;11.69;79.74;100476.69;4876473;28;24442;-66
2023/12/29 09:11:55;;;;;;;0.70;0.70;;;11.50;99.90;;;11.69;79.07;100464.41;4875211;28;25075;-66
2023/12/29 09:14:17;;;;;;;2.00;1.35;;;11.50;99.90;;;11.74;78.28;100463.22;4859550;28;24451;-66
2023/12/29 09:16:40;;;;;;;2.30;1.00;;;11.60;99.90;;;11.82;78.68;100468.69;4857681;28;24551;-66
2023/12/29 09:19:05;;;;;;;1.20;1.10;;;11.60;99.90;;;11.85;78.65;100476.28;4859820;28;24434;-66
2023/12/29 09:21:47;;;;;;;1.00;0.90;;;11.60;99.90;;;11.93;78.77;100468.66;4871624;28;24481;-67
2023/12/29 09:24:09;;;;;;;1.00;1.00;;;11.60;99.90;;;12.01;77.89;100474.13;4850275;28;24436;-66
2023/12/29 09:26:31;;;;;;;1.70;1.20;;;11.70;99.90;;;12.00;78.61;100460.22;4851148;28;24438;-66
2023/12/29 09:28:53;;;;;;;1.77;1.10;;;11.80;99.90;;;12.02;78.15;100470.53;4839703;28;24973;-66
2023/12/29 09:31:15;;;;;;;1.70;1.10;;;11.80;99.90;;;12.03;77.73;100464.38;4866575;28;24893;-66
2023/12/29 09:33:37;;;;;;;1.00;1.00;;;11.80;99.90;;;12.02;77.88;100462.69;4854189;28;24538;-66
2023/12/29 09:35:59;;;;;;;1.90;0.90;;;11.80;99.90;;;12.02;77.52;100467.91;4848241;28;24444;-64
2023/12/29 09:38:21;;;;;;;1.00;1.00;;;11.80;99.90;;;12.04;78.43;100468.63;4856812;28;25039;-66
2023/12/29 09:40:49;;;;;;;2.58;0.93;;;11.80;99.90;;;12.09;77.98;100469.94;4858327;28;24455;-66
2023/12/29 09:43:11;;;;;;;0.70;0.70;;;11.80;99.90;;;12.11;77.83;100473.25;4859211;28;24513;-65
2023/12/29 09:45:37;;;;;;;1.00;0.90;;;11.90;99.90;;;12.11;77.57;100468.03;4841923;28;24508;-66
2023/12/29 09:48:02;;;;;;;0.60;0.60;;;11.90;99.90;;;12.04;78.69;100468.63;4862333;28;20786;-66
2023/12/29 09:50:26;;;;;;;0.82;0.82;;;11.90;99.90;;;12.07;78.34;100473.63;4866062;28;24957;-66
2023/12/29 09:52:52;;;;;;;1.30;1.03;;;11.90;99.90;;;12.15;78.70;100473.81;4869842;28;25155;-66
2023/12/29 09:55:14;;;;;;;1.10;1.00;;;11.90;99.90;;;12.24;78.20;100473.09;4851537;28;25051;-66